Solano — WDB7930 — position and weather

sailwx.info

Track history (hours):
 
Tides and Currents Weather Stations Pressure Air Temp Water Temp Dewpoint Dewpoint Depression Visibility Wind Speed Wind Dir Waves Ship Positions

Solano

Owner: San Francisco Bay Area Water Emergency Transportation Authority, Vallejo, WA. More information available from US FCC via Universal Licensing System and Coast Guard Vessel Documentation Center.

Last reported at 2018-Feb-23 04:23 UTC. Time now 2018-Feb-23 10:30 UTC.
Position N 38°06' W 122°16'.

Length 38 m.

Type: Passenger vessel. MMSI: 366950020.

Date/timePositionNaut miles runAvg speedWind from/ knotsBaromVisibWave heightAir tempDewpointWater temp
2018-Feb-23 04:23N 38°06' W 122°16'2 4.7
2018-Feb-23 04:00N 38°04' W 122°15'1326.5
2018-Feb-23 03:30N 37°54' W 122°25'612.1
2018-Feb-23 03:01N 37°48' W 122°23'5 9.7
2018-Feb-23 02:30N 37°53' W 122°26'1513.3
2018-Feb-23 01:22N 38°06' W 122°16'411.1
2018-Feb-23 01:00N 38°03' W 122°18'1427.4
2018-Feb-23 00:31N 37°50' W 122°24'1 1.9
2018-Feb-23 00:00N 37°50' W 122°24'17 2.9
2018-Feb-22 18:11N 38°06' W 122°16'0 0.2
2018-Feb-22 17:17N 38°06' W 122°16'2 6.0
2018-Feb-22 16:58N 38°04' W 122°15'1327.6
2018-Feb-22 16:30N 37°55' W 122°25'713.9
2018-Feb-22 16:01N 37°48' W 122°24'1223.7
2018-Feb-22 15:31N 37°60' W 122°25'1017.3
2018-Feb-22 14:57N 38°06' W 122°16'0 0.0
2018-Feb-22 04:34N 38°06' W 122°16'0 0.7
2018-Feb-22 04:25N 38°06' W 122°16'2 4.3
2018-Feb-22 03:59N 38°04' W 122°15'1327.8
2018-Feb-22 03:30N 37°54' W 122°25'511.0
2018-Feb-22 03:00N 37°49' W 122°24'4 7.6
2018-Feb-22 02:30N 37°52' W 122°25'1621.2
2018-Feb-22 01:46N 38°06' W 122°16'0 0.0
2018-Feb-22 01:26N 38°06' W 122°16'715.3
2018-Feb-22 01:00N 38°01' W 122°22'1427.2
2018-Feb-22 00:30N 37°48' W 122°24'4 8.6
2018-Feb-22 00:00N 37°52' W 122°25'1526.4
2018-Feb-21 23:27N 38°04' W 122°15'2 3.9
2018-Feb-21 22:59N 38°06' W 122°16'0 0.0
2018-Feb-21 17:30N 38°06' W 122°16'2 3.6
2018-Feb-21 16:59N 38°04' W 122°15'1327.9
2018-Feb-21 16:30N 37°54' W 122°25'713.2
2018-Feb-21 16:00N 37°48' W 122°24'1020.5
2018-Feb-21 15:30N 37°58' W 122°26'1216.3
2018-Feb-21 14:47N 38°06' W 122°16'0 0.0
2018-Feb-21 03:09N 38°06' W 122°16'0 0.8
2018-Feb-21 02:53N 38°06' W 122°16'717.8
2018-Feb-21 02:31N 38°01' W 122°22'1425.7
2018-Feb-21 01:59N 37°48' W 122°24'3 5.9
2018-Feb-21 01:31N 37°50' W 122°25'1529.3
2018-Feb-21 01:00N 38°04' W 122°16'2 3.5
2018-Feb-21 00:21N 38°06' W 122°16'616.7
2018-Feb-21 00:00N 38°02' W 122°21'1428.3
2018-Feb-20 23:30N 37°48' W 122°24'1 2.4
2018-Feb-20 23:00N 37°49' W 122°25'1123.1
2018-Feb-20 22:31N 37°60' W 122°24'9 4.3
2018-Feb-20 20:24N 38°06' W 122°16'614.7
2018-Feb-20 20:00N 38°02' W 122°21'1427.4
2018-Feb-20 19:30N 37°49' W 122°25'1 2.4
2018-Feb-20 19:00N 37°48' W 122°24'1223.3
2018-Feb-20 18:30N 37°59' W 122°25'1011.4
2018-Feb-20 17:39N 38°06' W 122°16'0 0.0
2018-Feb-20 17:21N 38°06' W 122°16'2 4.5
2018-Feb-20 17:00N 38°05' W 122°15'1327.1
2018-Feb-20 16:30N 37°54' W 122°25'713.3
2018-Feb-20 16:00N 37°48' W 122°24'1020.5
2018-Feb-20 15:30N 37°58' W 122°26'1222.0
2018-Feb-20 14:58N 38°06' W 122°16'  
2018-Feb-15 04:28N 38°06' W 122°16'2 4.3
2018-Feb-15 03:59N 38°04' W 122°15'1328.2
2018-Feb-15 03:31N 37°53' W 122°25'5 9.3
2018-Feb-15 03:01N 37°49' W 122°24'1 3.0
2018-Feb-15 02:31N 37°50' W 122°25'1630.1
2018-Feb-15 01:59N 38°04' W 122°16'2 4.2
2018-Feb-15 01:30N 38°06' W 122°16'4 8.3
2018-Feb-15 01:01N 38°03' W 122°19'1326.4
2018-Feb-15 00:30N 37°50' W 122°24'2 3.1
2018-Feb-15 00:00N 37°48' W 122°23'1728.2
2018-Feb-14 23:25N 38°04' W 122°15'2 0.8
2018-Feb-14 20:35N 38°06' W 122°16'0 0.3
2018-Feb-14 20:21N 38°06' W 122°16'514.6
2018-Feb-14 20:00N 38°02' W 122°20'1428.3
2018-Feb-14 19:30N 37°49' W 122°25'1 2.4
2018-Feb-14 19:00N 37°48' W 122°24'1325.4
2018-Feb-14 18:30N 38°01' W 122°24'816.2
2018-Feb-14 18:00N 38°06' W 122°16'0 0.0
2018-Feb-14 17:30N 38°06' W 122°16'1 2.3
2018-Feb-14 17:00N 38°05' W 122°15'1327.3
2018-Feb-14 16:31N 37°54' W 122°25'713.6
2018-Feb-14 16:00N 37°48' W 122°24'1224.0
2018-Feb-14 15:30N 37°60' W 122°25'918.6
2018-Feb-14 15:01N 38°06' W 122°16'0 0.0
2018-Feb-14 04:26N 38°06' W 122°16'2 4.5
2018-Feb-14 03:58N 38°04' W 122°15'1328.6
2018-Feb-14 03:31N 37°54' W 122°25'611.0
2018-Feb-14 03:01N 37°49' W 122°24'2 4.3
2018-Feb-14 02:31N 37°50' W 122°25'1530.5
2018-Feb-14 02:00N 38°04' W 122°16'2 3.2
2018-Feb-14 01:22N 38°06' W 122°16'3 8.9
2018-Feb-14 01:00N 38°03' W 122°18'1326.3
2018-Feb-14 00:31N 37°51' W 122°24'3 6.1
2018-Feb-14 00:00N 37°48' W 122°24'1529.2
2018-Feb-13 23:30N 38°03' W 122°19'4 1.2
2018-Feb-13 20:13N 38°05' W 122°15'625.5
2018-Feb-13 20:00N 38°02' W 122°21'1427.9
2018-Feb-13 19:30N 37°49' W 122°25'1 2.4
2018-Feb-13 19:00N 37°48' W 122°24'1326.1
2018-Feb-13 18:30N 38°01' W 122°23'8 9.2
2018-Feb-13 17:39N 38°06' W 122°16'0 0.0
2018-Feb-13 17:17N 38°06' W 122°16'1 4.9
2018-Feb-13 16:59N 38°05' W 122°15'1327.6
2018-Feb-13 16:31N 37°55' W 122°25'713.7
2018-Feb-13 16:01N 37°48' W 122°24'918.1
2018-Feb-13 15:31N 37°57' W 122°27'  
Track history (hours):
 
Tides and Currents Weather Stations Pressure Air Temp Water Temp Dewpoint Dewpoint Depression Visibility Wind Speed Wind Dir Waves Ship Positions

Solano

Owner: San Francisco Bay Area Water Emergency Transportation Authority, Vallejo, WA. More information available from US FCC via Universal Licensing System and Coast Guard Vessel Documentation Center.

Last reported at 2018-Feb-23 04:23 UTC. Time now 2018-Feb-23 10:30 UTC.
Position N 38°06' W 122°16'.

Length 38 m.

Type: Passenger vessel. MMSI: 366950020.

Date/timePositionNaut miles runAvg speedWind from/ knotsBaromVisibWave heightAir tempDewpointWater temp
2018-Feb-23 04:23N 38°06' W 122°16'2 4.7
2018-Feb-23 04:00N 38°04' W 122°15'1326.5
2018-Feb-23 03:30N 37°54' W 122°25'612.1
2018-Feb-23 03:01N 37°48' W 122°23'5 9.7
2018-Feb-23 02:30N 37°53' W 122°26'1513.3
2018-Feb-23 01:22N 38°06' W 122°16'411.1
2018-Feb-23 01:00N 38°03' W 122°18'1427.4
2018-Feb-23 00:31N 37°50' W 122°24'1 1.9
2018-Feb-23 00:00N 37°50' W 122°24'17 2.9
2018-Feb-22 18:11N 38°06' W 122°16'0 0.2
2018-Feb-22 17:17N 38°06' W 122°16'2 6.0
2018-Feb-22 16:58N 38°04' W 122°15'1327.6
2018-Feb-22 16:30N 37°55' W 122°25'713.9
2018-Feb-22 16:01N 37°48' W 122°24'1223.7
2018-Feb-22 15:31N 37°60' W 122°25'1017.3
2018-Feb-22 14:57N 38°06' W 122°16'0 0.0
2018-Feb-22 04:34N 38°06' W 122°16'0 0.7
2018-Feb-22 04:25N 38°06' W 122°16'2 4.3
2018-Feb-22 03:59N 38°04' W 122°15'1327.8
2018-Feb-22 03:30N 37°54' W 122°25'511.0
2018-Feb-22 03:00N 37°49' W 122°24'4 7.6
2018-Feb-22 02:30N 37°52' W 122°25'1621.2
2018-Feb-22 01:46N 38°06' W 122°16'0 0.0
2018-Feb-22 01:26N 38°06' W 122°16'715.3
2018-Feb-22 01:00N 38°01' W 122°22'1427.2
2018-Feb-22 00:30N 37°48' W 122°24'4 8.6
2018-Feb-22 00:00N 37°52' W 122°25'1526.4
2018-Feb-21 23:27N 38°04' W 122°15'2 3.9
2018-Feb-21 22:59N 38°06' W 122°16'0 0.0
2018-Feb-21 17:30N 38°06' W 122°16'2 3.6
2018-Feb-21 16:59N 38°04' W 122°15'1327.9
2018-Feb-21 16:30N 37°54' W 122°25'713.2
2018-Feb-21 16:00N 37°48' W 122°24'1020.5
2018-Feb-21 15:30N 37°58' W 122°26'1216.3
2018-Feb-21 14:47N 38°06' W 122°16'0 0.0
2018-Feb-21 03:09N 38°06' W 122°16'0 0.8
2018-Feb-21 02:53N 38°06' W 122°16'717.8
2018-Feb-21 02:31N 38°01' W 122°22'1425.7
2018-Feb-21 01:59N 37°48' W 122°24'3 5.9
2018-Feb-21 01:31N 37°50' W 122°25'1529.3
2018-Feb-21 01:00N 38°04' W 122°16'2 3.5
2018-Feb-21 00:21N 38°06' W 122°16'616.7
2018-Feb-21 00:00N 38°02' W 122°21'1428.3
2018-Feb-20 23:30N 37°48' W 122°24'1 2.4
2018-Feb-20 23:00N 37°49' W 122°25'1123.1
2018-Feb-20 22:31N 37°60' W 122°24'9 4.3
2018-Feb-20 20:24N 38°06' W 122°16'614.7
2018-Feb-20 20:00N 38°02' W 122°21'1427.4
2018-Feb-20 19:30N 37°49' W 122°25'1 2.4
2018-Feb-20 19:00N 37°48' W 122°24'1223.3
2018-Feb-20 18:30N 37°59' W 122°25'1011.4
2018-Feb-20 17:39N 38°06' W 122°16'0 0.0
2018-Feb-20 17:21N 38°06' W 122°16'2 4.5
2018-Feb-20 17:00N 38°05' W 122°15'1327.1
2018-Feb-20 16:30N 37°54' W 122°25'713.3
2018-Feb-20 16:00N 37°48' W 122°24'1020.5
2018-Feb-20 15:30N 37°58' W 122°26'1222.0
2018-Feb-20 14:58N 38°06' W 122°16'  
2018-Feb-15 04:28N 38°06' W 122°16'2 4.3
2018-Feb-15 03:59N 38°04' W 122°15'1328.2
2018-Feb-15 03:31N 37°53' W 122°25'5 9.3
2018-Feb-15 03:01N 37°49' W 122°24'1 3.0
2018-Feb-15 02:31N 37°50' W 122°25'1630.1
2018-Feb-15 01:59N 38°04' W 122°16'2 4.2
2018-Feb-15 01:30N 38°06' W 122°16'4 8.3
2018-Feb-15 01:01N 38°03' W 122°19'1326.4
2018-Feb-15 00:30N 37°50' W 122°24'2 3.1
2018-Feb-15 00:00N 37°48' W 122°23'1728.2
2018-Feb-14 23:25N 38°04' W 122°15'2 0.8
2018-Feb-14 20:35N 38°06' W 122°16'0 0.3
2018-Feb-14 20:21N 38°06' W 122°16'514.6
2018-Feb-14 20:00N 38°02' W 122°20'1428.3
2018-Feb-14 19:30N 37°49' W 122°25'1 2.4
2018-Feb-14 19:00N 37°48' W 122°24'1325.4
2018-Feb-14 18:30N 38°01' W 122°24'816.2
2018-Feb-14 18:00N 38°06' W 122°16'0 0.0
2018-Feb-14 17:30N 38°06' W 122°16'1 2.3
2018-Feb-14 17:00N 38°05' W 122°15'1327.3
2018-Feb-14 16:31N 37°54' W 122°25'713.6
2018-Feb-14 16:00N 37°48' W 122°24'1224.0
2018-Feb-14 15:30N 37°60' W 122°25'918.6
2018-Feb-14 15:01N 38°06' W 122°16'0 0.0
2018-Feb-14 04:26N 38°06' W 122°16'2 4.5
2018-Feb-14 03:58N 38°04' W 122°15'1328.6
2018-Feb-14 03:31N 37°54' W 122°25'611.0
2018-Feb-14 03:01N 37°49' W 122°24'2 4.3
2018-Feb-14 02:31N 37°50' W 122°25'1530.5
2018-Feb-14 02:00N 38°04' W 122°16'2 3.2
2018-Feb-14 01:22N 38°06' W 122°16'3 8.9
2018-Feb-14 01:00N 38°03' W 122°18'1326.3
2018-Feb-14 00:31N 37°51' W 122°24'3 6.1
2018-Feb-14 00:00N 37°48' W 122°24'1529.2
2018-Feb-13 23:30N 38°03' W 122°19'4 1.2
2018-Feb-13 20:13N 38°05' W 122°15'625.5
2018-Feb-13 20:00N 38°02' W 122°21'1427.9
2018-Feb-13 19:30N 37°49' W 122°25'1 2.4
2018-Feb-13 19:00N 37°48' W 122°24'1326.1
2018-Feb-13 18:30N 38°01' W 122°23'8 9.2
2018-Feb-13 17:39N 38°06' W 122°16'0 0.0
2018-Feb-13 17:17N 38°06' W 122°16'1 4.9
2018-Feb-13 16:59N 38°05' W 122°15'1327.6
2018-Feb-13 16:31N 37°55' W 122°25'713.7
2018-Feb-13 16:01N 37°48' W 122°24'918.1
2018-Feb-13 15:31N 37°57' W 122°27'  

Dump ship's entire track history